map of MZI home
MZI - Airport
Location
City:  Mopti Ambodedjo, Mopti, Mali
Name:Sevare AB
ICAO:GAMB
IATA:MZI

Details
Type:Airport (Aerodrome, Airfield)
Use:Military
Latitude:1430'46"N (14.512803)
Longitude:404'46"W (-4.079560)
Datum:WGS 1984
Elevation:906 ft (276 m)
Variation:2.51W (WMM2015 magnetic declination)
0.09 annual change
Runways:1
Longest:8340 × 94 ft (2542 × 28.5 m), paved

Time
Time Zone:UTC+0
Local Time:

Weather
METAR:GAMB 150600Z 26004KT CAVOK 24/19 Q1012

Related Locations
Nearby:
Farthest:RTA: 12274 mi / 19753 km
Elsee, Rotuma Island, FJ

Find:

   beyond  
but within

Other Information
Maps:
NOTAMs:
Links:
Sources:

  
  • flag of Mali
  

Sectional Chart

Flight Planning
at skyvector.com

Satellite Image

Google Maps Satellite view

 

Copyright © 2004-2018 Karl L. Swartz. All rights reserved.
The Great Circle Mapper name and logo are trademarks of the Great Circle Mapper.
All other trademarks mentioned herein belong to their respective owners.
Please see credits for attibutions and further copyright information.

  Follow gcmap on Facebook Follow gcmap on Twitter Follow gcmap on Google+ GCmap on LinkedIn

hCard Microformat

Geo Microformat